sensor_id;sensor_type;location;lat;lon;timestamp;P1;durP1;ratioP1;P2;durP2;ratioP2
18905;SDS011;9585;51.018;4.282;2024-02-21T00:00:29;14.80;;;5.63;;
18905;SDS011;9585;51.018;4.282;2024-02-21T00:02:57;13.23;;;5.85;;
18905;SDS011;9585;51.018;4.282;2024-02-21T00:05:27;13.40;;;6.20;;
18905;SDS011;9585;51.018;4.282;2024-02-21T00:07:55;13.15;;;6.32;;
18905;SDS011;9585;51.018;4.282;2024-02-21T00:10:23;11.63;;;5.68;;
18905;SDS011;9585;51.018;4.282;2024-02-21T00:12:50;14.93;;;5.97;;
18905;SDS011;9585;51.018;4.282;2024-02-21T00:15:18;15.18;;;6.40;;
18905;SDS011;9585;51.018;4.282;2024-02-21T00:17:48;12.57;;;5.75;;
18905;SDS011;9585;51.018;4.282;2024-02-21T00:20:16;12.73;;;5.63;;
18905;SDS011;9585;51.018;4.282;2024-02-21T00:22:43;14.52;;;5.97;;
18905;SDS011;9585;51.018;4.282;2024-02-21T00:25:11;15.55;;;6.00;;
18905;SDS011;9585;51.018;4.282;2024-02-21T00:27:39;13.48;;;6.43;;
18905;SDS011;9585;51.018;4.282;2024-02-21T00:30:07;11.52;;;5.80;;
18905;SDS011;9585;51.018;4.282;2024-02-21T00:32:37;15.45;;;5.97;;
18905;SDS011;9585;51.018;4.282;2024-02-21T00:35:07;15.88;;;6.05;;
18905;SDS011;9585;51.018;4.282;2024-02-21T00:37:35;12.20;;;6.40;;
18905;SDS011;9585;51.018;4.282;2024-02-21T00:40:03;13.25;;;6.00;;
18905;SDS011;9585;51.018;4.282;2024-02-21T00:42:31;11.38;;;6.15;;
18905;SDS011;9585;51.018;4.282;2024-02-21T00:44:59;15.88;;;6.93;;
18905;SDS011;9585;51.018;4.282;2024-02-21T00:47:26;10.43;;;6.43;;
18905;SDS011;9585;51.018;4.282;2024-02-21T00:49:54;11.98;;;6.25;;
18905;SDS011;9585;51.018;4.282;2024-02-21T00:52:24;16.15;;;6.78;;
18905;SDS011;9585;51.018;4.282;2024-02-21T00:54:51;14.73;;;6.38;;
18905;SDS011;9585;51.018;4.282;2024-02-21T00:57:22;13.00;;;6.55;;
18905;SDS011;9585;51.018;4.282;2024-02-21T00:59:50;14.93;;;7.25;;
18905;SDS011;9585;51.018;4.282;2024-02-21T01:02:17;14.13;;;6.47;;
18905;SDS011;9585;51.018;4.282;2024-02-21T01:04:45;15.02;;;6.65;;
18905;SDS011;9585;51.018;4.282;2024-02-21T01:07:13;14.57;;;6.10;;
18905;SDS011;9585;51.018;4.282;2024-02-21T01:09:42;15.60;;;6.60;;
18905;SDS011;9585;51.018;4.282;2024-02-21T01:12:09;12.40;;;5.63;;
18905;SDS011;9585;51.018;4.282;2024-02-21T01:14:37;12.05;;;6.43;;
18905;SDS011;9585;51.018;4.282;2024-02-21T01:17:05;14.80;;;6.25;;
18905;SDS011;9585;51.018;4.282;2024-02-21T01:19:33;15.10;;;6.60;;
18905;SDS011;9585;51.018;4.282;2024-02-21T01:22:00;16.67;;;7.07;;
18905;SDS011;9585;51.018;4.282;2024-02-21T01:24:28;14.13;;;6.32;;
18905;SDS011;9585;51.018;4.282;2024-02-21T01:26:59;13.27;;;6.45;;
18905;SDS011;9585;51.018;4.282;2024-02-21T01:29:26;12.13;;;6.43;;
18905;SDS011;9585;51.018;4.282;2024-02-21T01:31:54;14.45;;;6.90;;
18905;SDS011;9585;51.018;4.282;2024-02-21T01:34:22;11.75;;;5.72;;
18905;SDS011;9585;51.018;4.282;2024-02-21T01:36:49;12.85;;;6.07;;
18905;SDS011;9585;51.018;4.282;2024-02-21T01:39:17;11.95;;;6.07;;
18905;SDS011;9585;51.018;4.282;2024-02-21T01:41:45;12.88;;;6.22;;
18905;SDS011;9585;51.018;4.282;2024-02-21T01:44:14;13.20;;;6.95;;
18905;SDS011;9585;51.018;4.282;2024-02-21T01:46:41;13.75;;;6.93;;
18905;SDS011;9585;51.018;4.282;2024-02-21T01:49:09;15.23;;;6.43;;
18905;SDS011;9585;51.018;4.282;2024-02-21T01:51:37;12.57;;;6.10;;
18905;SDS011;9585;51.018;4.282;2024-02-21T01:54:06;12.98;;;6.50;;
18905;SDS011;9585;51.018;4.282;2024-02-21T01:56:34;13.70;;;7.07;;
18905;SDS011;9585;51.018;4.282;2024-02-21T01:59:02;15.05;;;7.25;;
18905;SDS011;9585;51.018;4.282;2024-02-21T02:01:31;14.35;;;7.85;;
18905;SDS011;9585;51.018;4.282;2024-02-21T02:03:59;17.35;;;7.57;;
18905;SDS011;9585;51.018;4.282;2024-02-21T02:06:27;17.92;;;8.75;;
18905;SDS011;9585;51.018;4.282;2024-02-21T02:08:54;20.85;;;7.85;;
18905;SDS011;9585;51.018;4.282;2024-02-21T02:11:23;19.88;;;8.20;;
18905;SDS011;9585;51.018;4.282;2024-02-21T02:13:51;14.20;;;7.53;;
18905;SDS011;9585;51.018;4.282;2024-02-21T02:16:19;15.80;;;7.45;;
18905;SDS011;9585;51.018;4.282;2024-02-21T02:18:48;15.18;;;8.25;;
18905;SDS011;9585;51.018;4.282;2024-02-21T02:21:21;15.32;;;8.02;;
18905;SDS011;9585;51.018;4.282;2024-02-21T02:23:55;12.82;;;7.50;;
18905;SDS011;9585;51.018;4.282;2024-02-21T02:26:23;16.13;;;7.70;;
18905;SDS011;9585;51.018;4.282;2024-02-21T02:28:50;15.05;;;7.82;;
18905;SDS011;9585;51.018;4.282;2024-02-21T02:31:18;17.30;;;8.40;;
18905;SDS011;9585;51.018;4.282;2024-02-21T02:33:46;14.57;;;8.15;;
18905;SDS011;9585;51.018;4.282;2024-02-21T02:36:14;21.52;;;7.82;;
18905;SDS011;9585;51.018;4.282;2024-02-21T02:38:43;12.50;;;7.30;;
18905;SDS011;9585;51.018;4.282;2024-02-21T02:41:12;17.40;;;7.60;;
18905;SDS011;9585;51.018;4.282;2024-02-21T02:43:40;13.05;;;7.65;;
18905;SDS011;9585;51.018;4.282;2024-02-21T02:46:09;14.15;;;7.65;;
18905;SDS011;9585;51.018;4.282;2024-02-21T02:48:38;14.43;;;7.82;;
18905;SDS011;9585;51.018;4.282;2024-02-21T02:51:06;15.32;;;7.38;;
18905;SDS011;9585;51.018;4.282;2024-02-21T02:53:34;15.57;;;7.25;;
18905;SDS011;9585;51.018;4.282;2024-02-21T02:56:02;12.40;;;7.30;;
18905;SDS011;9585;51.018;4.282;2024-02-21T02:58:31;13.43;;;7.22;;
18905;SDS011;9585;51.018;4.282;2024-02-21T03:01:00;11.98;;;6.75;;
18905;SDS011;9585;51.018;4.282;2024-02-21T03:03:29;15.80;;;7.05;;
18905;SDS011;9585;51.018;4.282;2024-02-21T03:05:57;13.73;;;7.20;;
18905;SDS011;9585;51.018;4.282;2024-02-21T03:08:24;13.45;;;7.35;;
18905;SDS011;9585;51.018;4.282;2024-02-21T03:10:52;13.57;;;7.20;;
18905;SDS011;9585;51.018;4.282;2024-02-21T03:13:20;15.85;;;7.18;;
18905;SDS011;9585;51.018;4.282;2024-02-21T03:15:50;16.40;;;7.28;;
18905;SDS011;9585;51.018;4.282;2024-02-21T03:18:18;14.00;;;6.65;;
18905;SDS011;9585;51.018;4.282;2024-02-21T03:20:46;14.52;;;7.00;;
18905;SDS011;9585;51.018;4.282;2024-02-21T03:23:13;13.70;;;7.30;;
18905;SDS011;9585;51.018;4.282;2024-02-21T03:25:40;10.80;;;6.97;;
18905;SDS011;9585;51.018;4.282;2024-02-21T03:28:08;12.95;;;6.82;;
18905;SDS011;9585;51.018;4.282;2024-02-21T03:30:36;15.00;;;7.22;;
18905;SDS011;9585;51.018;4.282;2024-02-21T03:33:04;14.98;;;7.13;;
18905;SDS011;9585;51.018;4.282;2024-02-21T03:35:32;13.20;;;6.63;;
18905;SDS011;9585;51.018;4.282;2024-02-21T03:38:00;11.90;;;6.78;;
18905;SDS011;9585;51.018;4.282;2024-02-21T03:40:28;13.35;;;7.28;;
18905;SDS011;9585;51.018;4.282;2024-02-21T03:42:55;9.95;;;7.03;;
18905;SDS011;9585;51.018;4.282;2024-02-21T03:45:23;12.10;;;6.43;;
18905;SDS011;9585;51.018;4.282;2024-02-21T03:47:51;11.95;;;6.65;;
18905;SDS011;9585;51.018;4.282;2024-02-21T03:50:20;14.80;;;7.10;;
18905;SDS011;9585;51.018;4.282;2024-02-21T03:52:48;15.05;;;6.00;;
18905;SDS011;9585;51.018;4.282;2024-02-21T03:55:15;12.38;;;7.18;;
18905;SDS011;9585;51.018;4.282;2024-02-21T03:57:43;12.32;;;6.53;;
18905;SDS011;9585;51.018;4.282;2024-02-21T04:00:12;14.60;;;6.85;;
18905;SDS011;9585;51.018;4.282;2024-02-21T04:02:41;10.15;;;6.28;;
18905;SDS011;9585;51.018;4.282;2024-02-21T04:05:09;10.75;;;5.93;;
18905;SDS011;9585;51.018;4.282;2024-02-21T04:07:39;17.80;;;7.97;;
18905;SDS011;9585;51.018;4.282;2024-02-21T04:10:08;12.95;;;7.00;;
18905;SDS011;9585;51.018;4.282;2024-02-21T04:12:36;13.35;;;7.38;;
18905;SDS011;9585;51.018;4.282;2024-02-21T04:15:04;13.18;;;7.07;;
18905;SDS011;9585;51.018;4.282;2024-02-21T04:17:32;18.48;;;7.57;;
18905;SDS011;9585;51.018;4.282;2024-02-21T04:20:01;14.52;;;7.20;;
18905;SDS011;9585;51.018;4.282;2024-02-21T04:22:30;13.60;;;7.15;;
18905;SDS011;9585;51.018;4.282;2024-02-21T04:25:01;13.70;;;7.60;;
18905;SDS011;9585;51.018;4.282;2024-02-21T04:27:28;15.00;;;8.20;;
18905;SDS011;9585;51.018;4.282;2024-02-21T04:29:56;13.40;;;8.10;;
18905;SDS011;9585;51.018;4.282;2024-02-21T04:32:24;14.60;;;8.15;;
18905;SDS011;9585;51.018;4.282;2024-02-21T04:34:52;18.95;;;7.88;;
18905;SDS011;9585;51.018;4.282;2024-02-21T04:37:20;16.38;;;7.85;;
18905;SDS011;9585;51.018;4.282;2024-02-21T04:39:48;16.42;;;8.02;;
18905;SDS011;9585;51.018;4.282;2024-02-21T04:42:17;15.43;;;8.15;;
18905;SDS011;9585;51.018;4.282;2024-02-21T04:44:44;14.27;;;8.32;;
18905;SDS011;9585;51.018;4.282;2024-02-21T04:47:12;13.18;;;8.05;;
18905;SDS011;9585;51.018;4.282;2024-02-21T04:49:40;14.55;;;7.78;;
18905;SDS011;9585;51.018;4.282;2024-02-21T04:52:07;14.48;;;8.35;;
18905;SDS011;9585;51.018;4.282;2024-02-21T04:54:35;15.10;;;7.53;;
18905;SDS011;9585;51.018;4.282;2024-02-21T04:57:03;16.95;;;8.73;;
18905;SDS011;9585;51.018;4.282;2024-02-21T04:59:33;16.17;;;8.15;;
18905;SDS011;9585;51.018;4.282;2024-02-21T05:02:01;13.25;;;7.82;;
18905;SDS011;9585;51.018;4.282;2024-02-21T05:04:29;14.80;;;8.13;;
18905;SDS011;9585;51.018;4.282;2024-02-21T05:06:56;15.48;;;8.50;;
18905;SDS011;9585;51.018;4.282;2024-02-21T05:09:24;16.33;;;8.45;;
18905;SDS011;9585;51.018;4.282;2024-02-21T05:11:51;16.13;;;8.80;;
18905;SDS011;9585;51.018;4.282;2024-02-21T05:14:19;21.15;;;9.57;;
18905;SDS011;9585;51.018;4.282;2024-02-21T05:16:48;15.27;;;8.60;;
18905;SDS011;9585;51.018;4.282;2024-02-21T05:19:16;17.70;;;9.38;;
18905;SDS011;9585;51.018;4.282;2024-02-21T05:21:43;14.82;;;9.32;;
18905;SDS011;9585;51.018;4.282;2024-02-21T05:24:11;20.80;;;9.75;;
18905;SDS011;9585;51.018;4.282;2024-02-21T05:26:39;18.33;;;9.35;;
18905;SDS011;9585;51.018;4.282;2024-02-21T05:29:07;18.58;;;9.52;;
18905;SDS011;9585;51.018;4.282;2024-02-21T05:31:42;17.65;;;10.05;;
18905;SDS011;9585;51.018;4.282;2024-02-21T05:34:23;20.00;;;9.25;;
18905;SDS011;9585;51.018;4.282;2024-02-21T05:36:52;17.50;;;9.32;;
18905;SDS011;9585;51.018;4.282;2024-02-21T05:39:19;18.38;;;9.60;;
18905;SDS011;9585;51.018;4.282;2024-02-21T05:41:48;21.90;;;9.20;;
18905;SDS011;9585;51.018;4.282;2024-02-21T05:44:16;15.48;;;8.77;;
18905;SDS011;9585;51.018;4.282;2024-02-21T05:46:44;22.17;;;10.10;;
18905;SDS011;9585;51.018;4.282;2024-02-21T05:49:14;17.73;;;8.75;;
18905;SDS011;9585;51.018;4.282;2024-02-21T05:51:42;19.08;;;8.77;;
18905;SDS011;9585;51.018;4.282;2024-02-21T05:54:10;21.27;;;9.93;;
18905;SDS011;9585;51.018;4.282;2024-02-21T05:56:38;16.48;;;9.30;;
18905;SDS011;9585;51.018;4.282;2024-02-21T05:59:06;15.10;;;8.45;;
18905;SDS011;9585;51.018;4.282;2024-02-21T06:01:33;19.52;;;9.10;;
18905;SDS011;9585;51.018;4.282;2024-02-21T06:04:01;17.48;;;8.52;;
18905;SDS011;9585;51.018;4.282;2024-02-21T06:06:31;15.80;;;8.65;;
18905;SDS011;9585;51.018;4.282;2024-02-21T06:08:59;13.82;;;8.02;;
18905;SDS011;9585;51.018;4.282;2024-02-21T06:11:28;12.30;;;7.68;;
18905;SDS011;9585;51.018;4.282;2024-02-21T06:13:55;16.95;;;7.95;;
18905;SDS011;9585;51.018;4.282;2024-02-21T06:16:23;12.20;;;7.40;;
18905;SDS011;9585;51.018;4.282;2024-02-21T06:18:51;12.73;;;7.65;;
18905;SDS011;9585;51.018;4.282;2024-02-21T06:21:19;15.70;;;7.90;;
18905;SDS011;9585;51.018;4.282;2024-02-21T06:23:48;11.98;;;7.68;;
18905;SDS011;9585;51.018;4.282;2024-02-21T06:26:15;14.73;;;7.88;;
18905;SDS011;9585;51.018;4.282;2024-02-21T06:28:43;13.98;;;7.47;;
18905;SDS011;9585;51.018;4.282;2024-02-21T06:31:11;14.68;;;7.45;;
18905;SDS011;9585;51.018;4.282;2024-02-21T06:33:40;13.13;;;6.97;;
18905;SDS011;9585;51.018;4.282;2024-02-21T06:36:08;11.32;;;7.40;;
18905;SDS011;9585;51.018;4.282;2024-02-21T06:38:38;13.43;;;7.72;;
18905;SDS011;9585;51.018;4.282;2024-02-21T06:41:07;10.80;;;7.20;;
18905;SDS011;9585;51.018;4.282;2024-02-21T06:43:43;14.43;;;7.38;;
18905;SDS011;9585;51.018;4.282;2024-02-21T06:46:11;13.18;;;7.60;;
18905;SDS011;9585;51.018;4.282;2024-02-21T06:48:39;13.40;;;7.63;;
18905;SDS011;9585;51.018;4.282;2024-02-21T06:51:07;11.75;;;7.68;;
18905;SDS011;9585;51.018;4.282;2024-02-21T06:53:34;10.65;;;7.47;;
18905;SDS011;9585;51.018;4.282;2024-02-21T06:56:03;12.32;;;7.57;;
18905;SDS011;9585;51.018;4.282;2024-02-21T06:58:32;12.05;;;7.88;;
18905;SDS011;9585;51.018;4.282;2024-02-21T07:01:00;14.07;;;7.70;;
18905;SDS011;9585;51.018;4.282;2024-02-21T07:03:28;11.70;;;7.45;;
18905;SDS011;9585;51.018;4.282;2024-02-21T07:05:56;11.50;;;7.10;;
18905;SDS011;9585;51.018;4.282;2024-02-21T07:08:23;13.57;;;7.22;;
18905;SDS011;9585;51.018;4.282;2024-02-21T07:10:51;11.02;;;7.30;;
18905;SDS011;9585;51.018;4.282;2024-02-21T07:13:19;9.75;;;6.43;;
18905;SDS011;9585;51.018;4.282;2024-02-21T07:15:48;10.82;;;7.55;;
18905;SDS011;9585;51.018;4.282;2024-02-21T07:18:16;10.20;;;7.35;;
18905;SDS011;9585;51.018;4.282;2024-02-21T07:20:44;13.10;;;7.22;;
18905;SDS011;9585;51.018;4.282;2024-02-21T07:23:11;9.85;;;7.22;;
18905;SDS011;9585;51.018;4.282;2024-02-21T07:25:39;10.02;;;6.95;;
18905;SDS011;9585;51.018;4.282;2024-02-21T07:28:06;13.07;;;7.47;;
18905;SDS011;9585;51.018;4.282;2024-02-21T07:30:34;9.25;;;6.78;;
18905;SDS011;9585;51.018;4.282;2024-02-21T07:33:04;10.45;;;6.70;;
18905;SDS011;9585;51.018;4.282;2024-02-21T07:35:32;11.95;;;7.10;;
18905;SDS011;9585;51.018;4.282;2024-02-21T07:38:00;10.13;;;7.20;;
18905;SDS011;9585;51.018;4.282;2024-02-21T07:40:28;9.15;;;6.30;;
18905;SDS011;9585;51.018;4.282;2024-02-21T07:42:56;9.43;;;7.10;;
18905;SDS011;9585;51.018;4.282;2024-02-21T07:45:24;11.55;;;8.38;;
18905;SDS011;9585;51.018;4.282;2024-02-21T07:47:51;9.35;;;7.50;;
18905;SDS011;9585;51.018;4.282;2024-02-21T07:50:21;12.52;;;7.90;;
18905;SDS011;9585;51.018;4.282;2024-02-21T07:52:48;11.18;;;8.45;;
18905;SDS011;9585;51.018;4.282;2024-02-21T07:55:16;12.07;;;7.60;;
18905;SDS011;9585;51.018;4.282;2024-02-21T07:57:44;12.95;;;9.20;;
18905;SDS011;9585;51.018;4.282;2024-02-21T08:00:12;8.80;;;7.55;;
18905;SDS011;9585;51.018;4.282;2024-02-21T08:02:44;11.23;;;8.27;;
18905;SDS011;9585;51.018;4.282;2024-02-21T08:05:12;10.80;;;8.35;;
18905;SDS011;9585;51.018;4.282;2024-02-21T08:07:42;12.57;;;8.48;;
18905;SDS011;9585;51.018;4.282;2024-02-21T08:10:09;13.15;;;9.80;;
18905;SDS011;9585;51.018;4.282;2024-02-21T08:12:37;13.93;;;9.52;;
18905;SDS011;9585;51.018;4.282;2024-02-21T08:15:06;15.80;;;10.65;;
18905;SDS011;9585;51.018;4.282;2024-02-21T08:17:36;15.13;;;10.80;;
18905;SDS011;9585;51.018;4.282;2024-02-21T08:20:04;14.02;;;10.60;;
18905;SDS011;9585;51.018;4.282;2024-02-21T08:22:32;11.32;;;9.85;;
18905;SDS011;9585;51.018;4.282;2024-02-21T08:25:01;14.20;;;10.38;;
18905;SDS011;9585;51.018;4.282;2024-02-21T08:27:30;10.88;;;9.25;;
18905;SDS011;9585;51.018;4.282;2024-02-21T08:29:58;12.50;;;9.10;;
18905;SDS011;9585;51.018;4.282;2024-02-21T08:32:26;15.88;;;9.60;;
18905;SDS011;9585;51.018;4.282;2024-02-21T08:34:55;11.98;;;8.30;;
18905;SDS011;9585;51.018;4.282;2024-02-21T08:37:22;10.25;;;7.75;;
18905;SDS011;9585;51.018;4.282;2024-02-21T08:39:50;11.27;;;7.70;;
18905;SDS011;9585;51.018;4.282;2024-02-21T08:42:19;10.48;;;7.30;;
18905;SDS011;9585;51.018;4.282;2024-02-21T08:44:47;9.82;;;7.15;;
18905;SDS011;9585;51.018;4.282;2024-02-21T08:47:15;9.93;;;6.57;;
18905;SDS011;9585;51.018;4.282;2024-02-21T08:49:42;9.32;;;6.35;;
18905;SDS011;9585;51.018;4.282;2024-02-21T08:52:10;11.10;;;6.43;;
18905;SDS011;9585;51.018;4.282;2024-02-21T08:54:38;10.50;;;6.28;;
18905;SDS011;9585;51.018;4.282;2024-02-21T08:57:06;10.43;;;5.50;;
18905;SDS011;9585;51.018;4.282;2024-02-21T08:59:35;8.13;;;5.57;;
18905;SDS011;9585;51.018;4.282;2024-02-21T09:02:03;9.73;;;5.47;;
18905;SDS011;9585;51.018;4.282;2024-02-21T09:04:32;7.55;;;5.10;;
18905;SDS011;9585;51.018;4.282;2024-02-21T09:07:00;9.73;;;5.22;;
18905;SDS011;9585;51.018;4.282;2024-02-21T09:09:28;7.85;;;4.65;;
18905;SDS011;9585;51.018;4.282;2024-02-21T09:11:57;9.90;;;5.05;;
18905;SDS011;9585;51.018;4.282;2024-02-21T09:14:31;9.90;;;4.85;;
18905;SDS011;9585;51.018;4.282;2024-02-21T09:17:00;8.25;;;4.68;;
18905;SDS011;9585;51.018;4.282;2024-02-21T09:19:28;8.88;;;4.78;;
18905;SDS011;9585;51.018;4.282;2024-02-21T09:21:56;6.72;;;4.47;;
18905;SDS011;9585;51.018;4.282;2024-02-21T09:24:24;8.10;;;4.63;;
18905;SDS011;9585;51.018;4.282;2024-02-21T09:26:51;6.47;;;4.47;;
18905;SDS011;9585;51.018;4.282;2024-02-21T09:29:19;10.77;;;4.15;;
18905;SDS011;9585;51.018;4.282;2024-02-21T09:31:46;7.45;;;4.32;;
18905;SDS011;9585;51.018;4.282;2024-02-21T09:34:16;5.85;;;3.80;;
18905;SDS011;9585;51.018;4.282;2024-02-21T09:36:44;7.10;;;3.53;;
18905;SDS011;9585;51.018;4.282;2024-02-21T09:39:11;6.05;;;3.60;;
18905;SDS011;9585;51.018;4.282;2024-02-21T09:41:45;7.00;;;3.97;;
18905;SDS011;9585;51.018;4.282;2024-02-21T09:44:17;7.22;;;4.00;;
18905;SDS011;9585;51.018;4.282;2024-02-21T09:46:49;6.65;;;3.67;;
18905;SDS011;9585;51.018;4.282;2024-02-21T09:49:27;8.05;;;3.35;;
18905;SDS011;9585;51.018;4.282;2024-02-21T09:51:58;4.88;;;3.40;;
18905;SDS011;9585;51.018;4.282;2024-02-21T09:54:29;4.40;;;3.00;;
18905;SDS011;9585;51.018;4.282;2024-02-21T09:56:57;6.15;;;3.58;;
18905;SDS011;9585;51.018;4.282;2024-02-21T09:59:26;5.78;;;3.20;;
18905;SDS011;9585;51.018;4.282;2024-02-21T10:01:55;7.32;;;3.67;;
18905;SDS011;9585;51.018;4.282;2024-02-21T10:04:27;4.70;;;3.35;;
18905;SDS011;9585;51.018;4.282;2024-02-21T10:06:55;5.78;;;3.60;;
18905;SDS011;9585;51.018;4.282;2024-02-21T10:09:23;8.18;;;3.90;;
18905;SDS011;9585;51.018;4.282;2024-02-21T10:11:53;4.38;;;3.45;;
18905;SDS011;9585;51.018;4.282;2024-02-21T10:14:21;6.40;;;3.33;;
18905;SDS011;9585;51.018;4.282;2024-02-21T10:16:56;7.20;;;3.63;;
18905;SDS011;9585;51.018;4.282;2024-02-21T10:19:24;8.15;;;3.97;;
18905;SDS011;9585;51.018;4.282;2024-02-21T10:22:00;7.45;;;3.40;;
18905;SDS011;9585;51.018;4.282;2024-02-21T10:24:29;7.65;;;3.70;;
18905;SDS011;9585;51.018;4.282;2024-02-21T10:27:04;5.85;;;3.38;;
18905;SDS011;9585;51.018;4.282;2024-02-21T10:29:34;8.27;;;3.53;;
18905;SDS011;9585;51.018;4.282;2024-02-21T10:32:05;4.93;;;3.55;;
18905;SDS011;9585;51.018;4.282;2024-02-21T10:34:35;7.93;;;4.00;;
18905;SDS011;9585;51.018;4.282;2024-02-21T10:37:04;8.60;;;3.80;;
18905;SDS011;9585;51.018;4.282;2024-02-21T10:39:33;9.13;;;3.75;;
18905;SDS011;9585;51.018;4.282;2024-02-21T10:42:02;7.72;;;3.70;;
18905;SDS011;9585;51.018;4.282;2024-02-21T10:44:31;9.55;;;4.20;;
18905;SDS011;9585;51.018;4.282;2024-02-21T10:47:00;6.93;;;3.80;;
18905;SDS011;9585;51.018;4.282;2024-02-21T10:49:33;9.40;;;3.92;;
18905;SDS011;9585;51.018;4.282;2024-02-21T10:52:06;9.48;;;4.28;;
18905;SDS011;9585;51.018;4.282;2024-02-21T10:54:44;8.52;;;4.28;;
18905;SDS011;9585;51.018;4.282;2024-02-21T10:57:15;9.48;;;4.38;;
18905;SDS011;9585;51.018;4.282;2024-02-21T10:59:44;9.48;;;4.10;;
18905;SDS011;9585;51.018;4.282;2024-02-21T11:02:12;10.38;;;4.53;;
18905;SDS011;9585;51.018;4.282;2024-02-21T11:04:42;10.43;;;4.53;;
18905;SDS011;9585;51.018;4.282;2024-02-21T11:07:11;8.82;;;4.70;;
18905;SDS011;9585;51.018;4.282;2024-02-21T11:09:39;8.73;;;5.28;;
18905;SDS011;9585;51.018;4.282;2024-02-21T11:12:07;7.05;;;4.43;;
18905;SDS011;9585;51.018;4.282;2024-02-21T11:14:37;9.02;;;5.25;;
18905;SDS011;9585;51.018;4.282;2024-02-21T11:17:14;6.50;;;4.47;;
18905;SDS011;9585;51.018;4.282;2024-02-21T11:19:44;7.65;;;4.43;;
18905;SDS011;9585;51.018;4.282;2024-02-21T11:22:15;9.10;;;4.70;;
18905;SDS011;9585;51.018;4.282;2024-02-21T11:24:43;7.80;;;4.20;;
18905;SDS011;9585;51.018;4.282;2024-02-21T11:27:11;7.68;;;4.20;;
18905;SDS011;9585;51.018;4.282;2024-02-21T11:29:40;10.50;;;4.20;;
18905;SDS011;9585;51.018;4.282;2024-02-21T11:32:09;7.80;;;4.03;;
18905;SDS011;9585;51.018;4.282;2024-02-21T11:34:37;9.52;;;4.72;;
18905;SDS011;9585;51.018;4.282;2024-02-21T11:37:15;8.15;;;4.53;;
18905;SDS011;9585;51.018;4.282;2024-02-21T11:39:43;6.47;;;4.20;;
18905;SDS011;9585;51.018;4.282;2024-02-21T11:42:11;7.55;;;4.53;;
18905;SDS011;9585;51.018;4.282;2024-02-21T11:44:38;7.65;;;4.90;;
18905;SDS011;9585;51.018;4.282;2024-02-21T11:47:07;8.35;;;4.40;;
18905;SDS011;9585;51.018;4.282;2024-02-21T11:49:36;12.07;;;5.78;;
18905;SDS011;9585;51.018;4.282;2024-02-21T11:52:05;9.43;;;5.22;;
18905;SDS011;9585;51.018;4.282;2024-02-21T11:54:34;8.57;;;4.82;;
18905;SDS011;9585;51.018;4.282;2024-02-21T11:57:02;8.30;;;4.15;;
18905;SDS011;9585;51.018;4.282;2024-02-21T11:59:30;8.63;;;4.20;;
18905;SDS011;9585;51.018;4.282;2024-02-21T12:02:01;8.00;;;5.85;;
18905;SDS011;9585;51.018;4.282;2024-02-21T12:04:33;11.10;;;6.90;;
18905;SDS011;9585;51.018;4.282;2024-02-21T12:07:01;8.30;;;3.95;;
18905;SDS011;9585;51.018;4.282;2024-02-21T12:09:30;6.10;;;3.35;;
18905;SDS011;9585;51.018;4.282;2024-02-21T12:12:01;7.18;;;3.33;;
18905;SDS011;9585;51.018;4.282;2024-02-21T12:14:30;5.72;;;3.90;;
18905;SDS011;9585;51.018;4.282;2024-02-21T12:16:59;7.35;;;5.20;;
18905;SDS011;9585;51.018;4.282;2024-02-21T12:19:29;5.35;;;3.13;;
18905;SDS011;9585;51.018;4.282;2024-02-21T12:21:58;6.50;;;3.08;;
18905;SDS011;9585;51.018;4.282;2024-02-21T12:24:26;6.45;;;3.05;;
18905;SDS011;9585;51.018;4.282;2024-02-21T12:26:56;4.18;;;2.60;;
18905;SDS011;9585;51.018;4.282;2024-02-21T12:29:27;6.22;;;3.50;;
18905;SDS011;9585;51.018;4.282;2024-02-21T12:31:55;7.38;;;4.72;;
18905;SDS011;9585;51.018;4.282;2024-02-21T12:34:23;11.85;;;5.30;;
18905;SDS011;9585;51.018;4.282;2024-02-21T12:36:52;4.68;;;2.80;;
18905;SDS011;9585;51.018;4.282;2024-02-21T12:39:19;5.65;;;2.83;;
18905;SDS011;9585;51.018;4.282;2024-02-21T12:41:47;5.65;;;3.17;;
18905;SDS011;9585;51.018;4.282;2024-02-21T12:44:15;6.55;;;4.03;;
18905;SDS011;9585;51.018;4.282;2024-02-21T12:46:45;8.27;;;7.22;;
18905;SDS011;9585;51.018;4.282;2024-02-21T12:49:17;6.22;;;3.17;;
18905;SDS011;9585;51.018;4.282;2024-02-21T12:51:45;4.72;;;3.80;;
18905;SDS011;9585;51.018;4.282;2024-02-21T12:54:13;5.70;;;3.70;;
18905;SDS011;9585;51.018;4.282;2024-02-21T12:56:41;6.28;;;4.22;;
18905;SDS011;9585;51.018;4.282;2024-02-21T12:59:08;6.95;;;3.25;;
18905;SDS011;9585;51.018;4.282;2024-02-21T13:01:36;4.45;;;3.20;;
18905;SDS011;9585;51.018;4.282;2024-02-21T13:04:06;3.47;;;2.60;;
18905;SDS011;9585;51.018;4.282;2024-02-21T13:06:33;6.82;;;3.50;;
18905;SDS011;9585;51.018;4.282;2024-02-21T13:09:02;5.13;;;3.42;;
18905;SDS011;9585;51.018;4.282;2024-02-21T13:11:33;6.82;;;2.88;;
18905;SDS011;9585;51.018;4.282;2024-02-21T13:14:01;4.80;;;2.72;;
18905;SDS011;9585;51.018;4.282;2024-02-21T13:16:29;6.35;;;3.20;;
18905;SDS011;9585;51.018;4.282;2024-02-21T13:18:56;7.72;;;3.22;;
18905;SDS011;9585;51.018;4.282;2024-02-21T13:21:26;5.43;;;3.10;;
18905;SDS011;9585;51.018;4.282;2024-02-21T13:23:53;7.35;;;3.08;;
18905;SDS011;9585;51.018;4.282;2024-02-21T13:26:22;6.13;;;3.40;;
18905;SDS011;9585;51.018;4.282;2024-02-21T13:28:49;6.82;;;3.08;;
18905;SDS011;9585;51.018;4.282;2024-02-21T13:31:17;5.43;;;3.10;;
18905;SDS011;9585;51.018;4.282;2024-02-21T13:33:45;4.72;;;3.08;;
18905;SDS011;9585;51.018;4.282;2024-02-21T13:36:12;6.28;;;3.38;;
18905;SDS011;9585;51.018;4.282;2024-02-21T13:38:42;7.00;;;3.65;;
18905;SDS011;9585;51.018;4.282;2024-02-21T13:41:09;8.73;;;3.80;;
18905;SDS011;9585;51.018;4.282;2024-02-21T13:43:40;7.43;;;3.40;;
18905;SDS011;9585;51.018;4.282;2024-02-21T13:46:07;5.82;;;3.42;;
18905;SDS011;9585;51.018;4.282;2024-02-21T13:48:36;5.30;;;3.90;;
18905;SDS011;9585;51.018;4.282;2024-02-21T13:51:04;7.03;;;4.30;;
18905;SDS011;9585;51.018;4.282;2024-02-21T13:53:32;6.47;;;3.65;;
18905;SDS011;9585;51.018;4.282;2024-02-21T13:56:03;7.15;;;4.45;;
18905;SDS011;9585;51.018;4.282;2024-02-21T13:58:31;6.40;;;4.65;;
18905;SDS011;9585;51.018;4.282;2024-02-21T14:00:58;7.00;;;4.00;;
18905;SDS011;9585;51.018;4.282;2024-02-21T14:03:26;8.75;;;4.53;;
18905;SDS011;9585;51.018;4.282;2024-02-21T14:05:56;7.20;;;4.32;;
18905;SDS011;9585;51.018;4.282;2024-02-21T14:08:24;8.98;;;5.10;;
18905;SDS011;9585;51.018;4.282;2024-02-21T14:10:52;7.53;;;4.72;;
18905;SDS011;9585;51.018;4.282;2024-02-21T14:13:22;10.60;;;4.63;;
18905;SDS011;9585;51.018;4.282;2024-02-21T14:15:50;7.80;;;4.70;;
18905;SDS011;9585;51.018;4.282;2024-02-21T14:18:18;9.20;;;5.20;;
18905;SDS011;9585;51.018;4.282;2024-02-21T14:20:46;7.53;;;4.97;;
18905;SDS011;9585;51.018;4.282;2024-02-21T14:23:14;8.00;;;4.20;;
18905;SDS011;9585;51.018;4.282;2024-02-21T14:25:41;9.60;;;4.80;;
18905;SDS011;9585;51.018;4.282;2024-02-21T14:28:09;7.22;;;4.60;;
18905;SDS011;9585;51.018;4.282;2024-02-21T14:30:38;7.80;;;5.22;;
18905;SDS011;9585;51.018;4.282;2024-02-21T14:33:06;7.03;;;4.85;;
18905;SDS011;9585;51.018;4.282;2024-02-21T14:35:34;7.35;;;4.35;;
18905;SDS011;9585;51.018;4.282;2024-02-21T14:38:01;6.78;;;4.45;;
18905;SDS011;9585;51.018;4.282;2024-02-21T14:40:29;7.15;;;4.68;;
18905;SDS011;9585;51.018;4.282;2024-02-21T14:42:59;6.88;;;4.75;;
18905;SDS011;9585;51.018;4.282;2024-02-21T14:45:26;7.40;;;4.10;;
18905;SDS011;9585;51.018;4.282;2024-02-21T14:47:56;7.05;;;4.35;;
18905;SDS011;9585;51.018;4.282;2024-02-21T14:50:24;7.05;;;4.25;;
18905;SDS011;9585;51.018;4.282;2024-02-21T14:52:51;6.90;;;4.40;;
18905;SDS011;9585;51.018;4.282;2024-02-21T14:55:19;5.82;;;4.32;;
18905;SDS011;9585;51.018;4.282;2024-02-21T14:57:47;4.78;;;3.80;;
18905;SDS011;9585;51.018;4.282;2024-02-21T15:00:15;6.88;;;3.65;;